createdAt,value
2022-12-22T00:01:07.914Z,251.60
2022-12-22T00:03:53.319Z,232.50
2022-12-22T00:06:39.162Z,225.15
2022-12-22T00:09:26.312Z,212.65
2022-12-22T00:12:11.893Z,227.18
2022-12-22T00:14:57.411Z,204.57
2022-12-22T00:17:44.721Z,218.57
2022-12-22T00:20:33.097Z,238.00
2022-12-22T00:23:19.063Z,258.80
2022-12-22T00:26:06.606Z,235.82
2022-12-22T00:28:54.025Z,242.02
2022-12-22T00:31:40.311Z,242.27
2022-12-22T00:34:32.795Z,270.35
2022-12-22T00:37:18.846Z,241.68
2022-12-22T00:40:04.552Z,272.02
2022-12-22T00:42:51.365Z,279.05
2022-12-22T00:45:37.914Z,303.77
2022-12-22T00:48:24.602Z,287.40
2022-12-22T00:51:10.540Z,270.00
2022-12-22T00:53:55.818Z,258.58
2022-12-22T00:56:41.760Z,310.35
2022-12-22T00:59:29.630Z,284.35
2022-12-22T01:02:15.764Z,282.33
2022-12-22T01:05:01.485Z,265.02
2022-12-22T01:07:48.511Z,278.55
2022-12-22T01:10:34.449Z,301.75
2022-12-22T01:13:20.379Z,296.77
2022-12-22T01:16:07.676Z,283.08
2022-12-22T01:18:53.390Z,270.48
2022-12-22T01:21:39.738Z,263.55
2022-12-22T01:24:30.654Z,291.38
2022-12-22T01:27:15.985Z,317.60
2022-12-22T01:30:02.294Z,319.52
2022-12-22T01:32:49.478Z,316.85
2022-12-22T01:35:38.868Z,274.98
2022-12-22T01:38:24.622Z,264.40
2022-12-22T01:41:11.696Z,275.40
2022-12-22T01:43:57.035Z,301.92
2022-12-22T01:46:45.143Z,303.02
2022-12-22T01:49:35.672Z,285.63
2022-12-22T01:52:21.834Z,288.83
2022-12-22T01:55:08.979Z,281.65
2022-12-22T01:57:55.712Z,270.75
2022-12-22T02:00:41.895Z,269.00
2022-12-22T02:03:34.927Z,300.95
2022-12-22T02:06:33.625Z,396.75
2022-12-22T02:09:36.117Z,818.88
2022-12-22T02:12:28.952Z,585.50
2022-12-22T02:15:26.122Z,539.97
2022-12-22T02:18:23.457Z,446.25
2022-12-22T02:21:13.027Z,373.27
2022-12-22T02:24:26.157Z,357.17
2022-12-22T02:27:17.052Z,480.00
2022-12-22T02:30:09.532Z,336.77
2022-12-22T02:35:42.337Z,239.60
2022-12-22T02:38:38.085Z,247.15
2022-12-22T02:41:33.480Z,267.88
2022-12-22T02:44:37.123Z,267.60
2022-12-22T02:47:29.907Z,266.85
2022-12-22T02:50:21.212Z,269.73
2022-12-22T02:53:08.172Z,261.42
2022-12-22T02:55:53.946Z,224.68
2022-12-22T02:58:39.699Z,242.30
2022-12-22T03:01:26.863Z,210.32
2022-12-22T03:04:12.610Z,217.63
2022-12-22T03:06:58.781Z,216.68
2022-12-22T03:09:44.187Z,192.57
2022-12-22T03:12:30.111Z,197.75
2022-12-22T03:15:15.548Z,203.50
2022-12-22T03:18:02.528Z,202.95
2022-12-22T03:20:47.871Z,186.13
2022-12-22T03:23:33.617Z,186.90
2022-12-22T03:26:02.254Z,169.48
2022-12-22T03:28:30.281Z,147.10
2022-12-22T03:30:59.992Z,160.80
2022-12-22T03:33:30.652Z,166.82
2022-12-22T03:35:59.423Z,154.35
2022-12-22T03:38:27.639Z,156.15
2022-12-22T03:40:55.964Z,202.13
2022-12-22T03:43:42.154Z,178.38
2022-12-22T03:46:30.364Z,154.93
2022-12-22T03:49:12.517Z,195.73
2022-12-22T03:51:43.378Z,192.30
2022-12-22T03:54:13.256Z,247.52
2022-12-22T03:56:41.484Z,225.45
2022-12-22T03:59:09.688Z,191.98
2022-12-22T04:01:43.416Z,201.82
2022-12-22T04:04:14.935Z,204.82
2022-12-22T04:06:42.952Z,221.40
2022-12-22T04:09:11.394Z,205.63
2022-12-22T04:11:57.282Z,224.93
2022-12-22T04:14:31.553Z,217.68
2022-12-22T04:17:01.757Z,222.90
2022-12-22T04:19:31.287Z,225.27
2022-12-22T04:21:59.220Z,214.30
2022-12-22T04:24:27.416Z,225.05
2022-12-22T04:26:55.265Z,217.60
2022-12-22T04:29:23.227Z,236.70
2022-12-22T04:31:51.116Z,246.45
2022-12-22T04:34:19.218Z,240.70
2022-12-22T04:36:48.204Z,224.88
2022-12-22T04:39:16.233Z,245.07
2022-12-22T04:41:44.648Z,236.07
2022-12-22T04:44:12.715Z,243.18
2022-12-22T04:46:40.495Z,269.70
2022-12-22T04:49:08.760Z,248.75
2022-12-22T04:51:36.447Z,229.18
2022-12-22T04:54:06.003Z,278.08
2022-12-22T04:56:34.227Z,233.43
2022-12-22T04:59:02.165Z,238.32
2022-12-22T05:01:30.063Z,259.17
2022-12-22T05:03:58.420Z,328.85
2022-12-22T05:06:26.117Z,254.80
2022-12-22T05:08:54.289Z,248.77
2022-12-22T05:11:23.477Z,241.93
2022-12-22T05:13:51.427Z,238.95
2022-12-22T05:16:19.491Z,266.15
2022-12-22T05:18:47.505Z,231.55
2022-12-22T05:21:17.355Z,257.10
2022-12-22T05:23:46.549Z,235.00
2022-12-22T05:26:15.661Z,226.82
2022-12-22T05:28:46.329Z,244.30
2022-12-22T05:31:16.919Z,276.00
2022-12-22T05:33:44.935Z,248.32
2022-12-22T05:36:12.778Z,258.20
2022-12-22T05:38:41.035Z,253.23
2022-12-22T05:41:08.976Z,243.75
2022-12-22T05:43:37.395Z,232.43
2022-12-22T05:46:08.876Z,408.02
2022-12-22T05:48:39.429Z,328.17
2022-12-22T05:51:09.328Z,250.38
2022-12-22T05:53:38.568Z,237.73
2022-12-22T05:56:07.975Z,265.70
2022-12-22T05:58:38.521Z,254.13
2022-12-22T06:01:08.319Z,255.40
2022-12-22T06:03:36.901Z,265.33
2022-12-22T06:06:05.684Z,294.80
2022-12-22T06:08:33.644Z,282.92
2022-12-22T06:11:01.481Z,295.83
2022-12-22T06:13:29.576Z,279.05
2022-12-22T06:15:57.370Z,269.30
2022-12-22T06:18:26.861Z,321.98
2022-12-22T06:20:55.453Z,305.25
2022-12-22T06:23:23.761Z,285.83
2022-12-22T06:25:56.402Z,262.40
2022-12-22T06:28:24.869Z,326.05
2022-12-22T06:30:52.831Z,347.70
2022-12-22T06:33:21.018Z,297.05
2022-12-22T06:35:57.423Z,291.48
2022-12-22T06:38:26.693Z,372.27
2022-12-22T06:40:54.473Z,373.33
2022-12-22T06:43:21.437Z,340.13
2022-12-22T06:45:49.154Z,367.02
2022-12-22T06:48:17.510Z,269.08
2022-12-22T06:50:45.243Z,314.95
2022-12-22T06:53:14.829Z,324.20
2022-12-22T06:55:42.723Z,682.70
2022-12-22T06:58:10.799Z,397.52
2022-12-22T07:00:38.570Z,325.80
2022-12-22T07:03:06.922Z,382.70
2022-12-22T07:05:34.863Z,257.55
2022-12-22T07:08:08.339Z,207.82
2022-12-22T07:10:55.907Z,193.07
2022-12-22T07:13:24.462Z,182.73
2022-12-22T07:16:00.190Z,198.25
2022-12-22T07:18:30.871Z,183.95
2022-12-22T07:20:58.822Z,168.00
2022-12-22T07:23:27.413Z,264.50
2022-12-22T07:25:56.779Z,243.27
2022-12-22T07:28:25.182Z,272.13
2022-12-22T07:30:54.403Z,315.60
2022-12-22T07:33:23.018Z,270.98
2022-12-22T07:36:03.750Z,234.40
2022-12-22T07:38:34.127Z,224.65
2022-12-22T07:41:05.557Z,212.88
2022-12-22T07:43:32.988Z,195.35
2022-12-22T07:46:00.755Z,203.93
2022-12-22T07:48:46.536Z,194.93
2022-12-22T07:51:14.441Z,202.90
2022-12-22T07:53:42.506Z,171.18
2022-12-22T07:56:11.789Z,200.95
2022-12-22T07:58:39.748Z,209.43
2022-12-22T08:01:07.604Z,227.77
2022-12-22T08:03:35.598Z,248.85
2022-12-22T08:06:05.342Z,185.57
2022-12-22T08:08:34.442Z,200.88
2022-12-22T08:11:02.826Z,215.55
2022-12-22T08:13:32.646Z,171.25
2022-12-22T08:16:04.988Z,183.90
2022-12-22T08:18:33.508Z,170.07
2022-12-22T08:21:01.393Z,178.70
2022-12-22T08:23:29.749Z,175.05
2022-12-22T08:26:02.226Z,156.43
2022-12-22T08:28:33.626Z,146.43
2022-12-22T08:31:02.923Z,157.65
2022-12-22T08:33:30.996Z,156.88
2022-12-22T08:36:05.837Z,142.35
2022-12-22T08:38:36.923Z,141.20
2022-12-22T08:41:05.134Z,133.75
2022-12-22T08:43:34.733Z,125.35
2022-12-22T08:46:02.701Z,129.35
2022-12-22T08:48:31.133Z,132.02
2022-12-22T08:50:59.236Z,139.70
2022-12-22T08:54:02.563Z,135.40
2022-12-22T08:56:15.234Z,145.90
2022-12-22T08:58:44.731Z,139.07
2022-12-22T09:01:17.903Z,144.60
2022-12-22T09:03:49.421Z,128.00
2022-12-22T09:06:17.213Z,128.13
2022-12-22T09:08:45.527Z,130.95
2022-12-22T09:11:13.668Z,123.53
2022-12-22T09:13:41.801Z,119.35
2022-12-22T09:16:11.203Z,117.78
2022-12-22T09:18:39.511Z,114.30
2022-12-22T09:21:07.209Z,114.82
2022-12-22T09:23:35.175Z,108.68
2022-12-22T09:26:08.203Z,116.80
2022-12-22T09:28:36.452Z,117.00
2022-12-22T09:31:05.187Z,111.00
2022-12-22T09:33:36.193Z,112.20
2022-12-22T09:36:07.175Z,120.22
2022-12-22T09:38:35.405Z,111.47
2022-12-22T09:41:08.840Z,105.50
2022-12-22T09:43:37.250Z,105.50
2022-12-22T09:46:05.186Z,106.38
2022-12-22T09:48:38.111Z,81.68
2022-12-22T09:51:06.188Z,80.65
2022-12-22T09:53:34.292Z,75.18
2022-12-22T09:56:02.086Z,80.75
2022-12-22T09:58:34.388Z,82.80
2022-12-22T10:01:12.139Z,82.25
2022-12-22T10:03:48.683Z,82.00
2022-12-22T10:06:22.065Z,79.28
2022-12-22T10:08:50.209Z,71.65
2022-12-22T10:11:19.734Z,72.47
2022-12-22T10:13:47.953Z,64.65
2022-12-22T10:16:21.640Z,78.38
2022-12-22T10:18:59.837Z,72.88
2022-12-22T10:21:30.028Z,81.72
2022-12-22T10:23:58.011Z,75.18
2022-12-22T10:26:31.442Z,73.10
2022-12-22T10:29:04.621Z,74.03
2022-12-22T10:34:14.965Z,69.30
2022-12-22T10:36:48.269Z,70.68
2022-12-22T10:39:22.808Z,77.25
2022-12-22T10:41:55.165Z,84.03
2022-12-22T10:44:27.008Z,86.25
2022-12-22T10:46:56.624Z,89.88
2022-12-22T10:49:29.115Z,111.47
2022-12-22T10:52:09.802Z,150.18
2022-12-22T10:54:38.433Z,139.82
2022-12-22T10:57:21.805Z,94.97
2022-12-22T10:59:51.475Z,93.03
2022-12-22T11:02:33.228Z,78.70
2022-12-22T11:07:35.728Z,63.88
2022-12-22T11:10:16.507Z,57.70
2022-12-22T11:13:00.209Z,62.63
2022-12-22T11:15:33.946Z,70.13
2022-12-22T11:18:10.069Z,74.10
2022-12-22T11:20:53.055Z,89.80
2022-12-22T11:23:28.365Z,113.57
2022-12-22T11:26:10.036Z,115.10
2022-12-22T11:28:55.246Z,132.50
2022-12-22T11:31:40.513Z,145.25
2022-12-22T11:34:21.382Z,145.95
2022-12-22T11:37:03.518Z,143.37
2022-12-22T11:39:41.334Z,112.47
2022-12-22T11:42:28.761Z,70.05
2022-12-22T11:45:05.070Z,15.95
2022-12-22T11:47:46.999Z,13.80
2022-12-22T11:51:02.031Z,17.08
2022-12-22T11:53:52.152Z,10.63
2022-12-22T11:56:24.481Z,10.23
2022-12-22T11:59:30.916Z,8.90
2022-12-22T12:02:24.716Z,7.35
2022-12-22T12:05:19.743Z,17.08
2022-12-22T12:07:55.341Z,11.52
2022-12-22T12:10:28.197Z,7.32
2022-12-22T12:13:05.043Z,8.52
2022-12-22T12:15:38.761Z,7.45
2022-12-22T12:18:31.048Z,7.50
2022-12-22T12:24:01.463Z,7.10
2022-12-22T12:26:34.225Z,6.38
2022-12-22T12:31:43.132Z,10.75
2022-12-22T12:34:14.114Z,8.02
2022-12-22T12:36:51.191Z,8.00
2022-12-22T12:39:25.278Z,7.85
2022-12-22T12:42:05.555Z,9.93
2022-12-22T12:44:36.477Z,8.02
2022-12-22T12:47:23.160Z,8.87
2022-12-22T12:50:23.725Z,6.72
2022-12-22T12:53:16.635Z,6.88
2022-12-22T12:55:56.334Z,7.75
2022-12-22T12:59:01.472Z,6.60
2022-12-22T13:01:58.163Z,6.95
2022-12-22T13:05:09.281Z,8.63
2022-12-22T13:08:22.776Z,9.57
2022-12-22T13:12:10.564Z,7.80
2022-12-22T13:14:53.287Z,6.30
2022-12-22T13:17:42.205Z,6.40
2022-12-22T13:20:16.431Z,8.35
2022-12-22T13:22:45.109Z,6.85
2022-12-22T13:25:16.810Z,6.43
2022-12-22T13:27:45.077Z,5.43
2022-12-22T13:30:16.474Z,8.18
2022-12-22T13:32:49.485Z,7.47
2022-12-22T13:35:43.047Z,7.75
2022-12-22T13:38:27.807Z,5.82
2022-12-22T13:40:56.202Z,6.40
2022-12-22T13:43:25.794Z,11.25
2022-12-22T13:45:55.771Z,7.47
2022-12-22T13:48:34.002Z,7.15
2022-12-22T13:51:06.600Z,6.97
2022-12-22T13:54:11.671Z,7.68
2022-12-22T13:56:35.043Z,8.50
2022-12-22T13:59:05.139Z,7.45
2022-12-22T14:01:33.249Z,7.07
2022-12-22T14:04:07.780Z,7.88
2022-12-22T14:06:38.321Z,6.43
2022-12-22T14:09:15.010Z,6.38
2022-12-22T14:11:51.064Z,4.72
2022-12-22T14:14:24.469Z,6.05
2022-12-22T14:16:55.623Z,6.35
2022-12-22T14:19:26.531Z,7.33
2022-12-22T14:22:04.604Z,5.88
2022-12-22T14:24:38.748Z,7.80
2022-12-22T14:27:13.348Z,10.18
2022-12-22T14:29:41.925Z,7.85
2022-12-22T14:32:10.694Z,10.10
2022-12-22T14:34:40.309Z,18.50
2022-12-22T14:37:11.548Z,12.95
2022-12-22T14:39:39.997Z,12.75
2022-12-22T14:42:14.960Z,11.18
2022-12-22T14:44:46.072Z,15.00
2022-12-22T14:47:17.450Z,11.00
2022-12-22T14:49:50.579Z,12.75
2022-12-22T14:52:23.368Z,10.45
2022-12-22T14:54:54.275Z,8.65
2022-12-22T14:57:30.133Z,9.40
2022-12-22T15:00:01.376Z,9.55
2022-12-22T15:02:38.725Z,12.60
2022-12-22T15:05:25.651Z,7.60
2022-12-22T15:08:06.013Z,7.13
2022-12-22T15:10:40.677Z,8.25
2022-12-22T15:13:18.081Z,9.30
2022-12-22T15:15:46.463Z,9.68
2022-12-22T15:18:16.284Z,9.65
2022-12-22T15:20:45.834Z,14.05
2022-12-22T15:23:16.809Z,13.43
2022-12-22T15:25:45.553Z,12.73
2022-12-22T15:28:13.753Z,17.30
2022-12-22T15:30:42.929Z,15.57
2022-12-22T15:33:16.212Z,17.75
2022-12-22T15:35:46.757Z,14.70
2022-12-22T15:38:16.800Z,16.80
2022-12-22T15:40:45.762Z,19.88
2022-12-22T15:43:36.808Z,13.60
2022-12-22T15:46:03.386Z,16.38
2022-12-22T15:48:34.473Z,12.55
2022-12-22T15:51:05.306Z,16.38
2022-12-22T15:53:34.730Z,13.52
2022-12-22T15:56:03.126Z,16.55
2022-12-22T15:58:34.305Z,19.52
2022-12-22T16:01:02.973Z,14.32
2022-12-22T16:03:31.059Z,12.55
2022-12-22T16:06:00.666Z,7.50
2022-12-22T16:08:32.637Z,9.02
2022-12-22T16:11:00.964Z,10.15
2022-12-22T16:13:29.646Z,8.80
2022-12-22T16:15:59.129Z,9.38
2022-12-22T16:18:27.153Z,9.35
2022-12-22T16:20:56.679Z,11.82
2022-12-22T16:23:27.646Z,10.23
2022-12-22T16:26:01.913Z,11.27
2022-12-22T16:28:30.949Z,10.40
2022-12-22T16:31:00.627Z,9.20
2022-12-22T16:33:28.904Z,10.90
2022-12-22T16:35:57.352Z,11.52
2022-12-22T16:38:25.261Z,9.70
2022-12-22T16:40:54.796Z,10.48
2022-12-22T16:46:18.453Z,11.00
2022-12-22T16:48:49.133Z,11.38
2022-12-22T16:51:20.322Z,10.80
2022-12-22T16:53:48.320Z,11.38
2022-12-22T16:56:20.124Z,10.85
2022-12-22T16:58:50.045Z,9.88
2022-12-22T17:01:23.994Z,9.77
2022-12-22T17:03:52.120Z,17.00
2022-12-22T17:06:20.654Z,19.65
2022-12-22T17:08:49.272Z,13.20
2022-12-22T17:11:22.156Z,13.73
2022-12-22T17:13:54.725Z,11.80
2022-12-22T17:16:24.221Z,16.48
2022-12-22T17:18:52.551Z,12.82
2022-12-22T17:21:22.686Z,12.93
2022-12-22T17:23:52.443Z,13.15
2022-12-22T17:26:23.615Z,14.50
2022-12-22T17:28:54.113Z,16.58
2022-12-22T17:31:24.037Z,15.70
2022-12-22T17:33:52.189Z,14.98
2022-12-22T17:36:29.978Z,13.13
2022-12-22T17:38:58.782Z,19.02
2022-12-22T17:41:27.270Z,14.25
2022-12-22T17:43:56.645Z,28.08
2022-12-22T17:46:25.078Z,22.25
2022-12-22T17:48:53.462Z,23.13
2022-12-22T17:51:24.542Z,21.25
2022-12-22T17:53:53.041Z,48.05
2022-12-22T17:56:23.203Z,24.85
2022-12-22T17:58:51.968Z,25.55
2022-12-22T18:01:23.823Z,21.75
2022-12-22T18:03:51.988Z,15.32
2022-12-22T18:06:22.933Z,12.65
2022-12-22T18:08:52.271Z,14.48
2022-12-22T18:11:20.773Z,14.65
2022-12-22T18:13:49.241Z,19.73
2022-12-22T18:16:20.310Z,12.52
2022-12-22T18:18:50.186Z,14.73
2022-12-22T18:21:21.622Z,13.32
2022-12-22T18:23:51.140Z,14.50
2022-12-22T18:26:25.678Z,14.23
2022-12-22T18:28:54.436Z,12.27
2022-12-22T18:31:24.534Z,11.25
2022-12-22T18:33:54.504Z,15.20
2022-12-22T18:36:27.838Z,14.07
2022-12-22T18:38:56.366Z,10.40
2022-12-22T18:41:26.371Z,14.52
2022-12-22T18:43:54.569Z,11.23
2022-12-22T18:46:22.843Z,13.23
2022-12-22T18:48:50.916Z,9.98
2022-12-22T18:51:23.060Z,12.30
2022-12-22T18:53:52.491Z,17.20
2022-12-22T18:56:21.244Z,14.13
2022-12-22T18:58:49.295Z,15.90
2022-12-22T19:01:20.317Z,13.27
2022-12-22T19:03:48.956Z,11.93
2022-12-22T19:06:22.208Z,10.25
2022-12-22T19:08:52.391Z,14.45
2022-12-22T19:11:25.141Z,15.32
2022-12-22T19:13:53.700Z,17.38
2022-12-22T19:16:25.824Z,13.05
2022-12-22T19:18:53.902Z,15.10
2022-12-22T19:21:22.465Z,14.45
2022-12-22T19:23:51.830Z,15.27
2022-12-22T19:26:23.272Z,14.55
2022-12-22T19:28:55.288Z,12.67
2022-12-22T19:31:26.553Z,12.80
2022-12-22T19:33:56.368Z,15.77
2022-12-22T19:36:27.355Z,12.48
2022-12-22T19:39:04.638Z,11.57
2022-12-22T19:41:41.893Z,9.65
2022-12-22T19:44:21.978Z,11.70
2022-12-22T19:46:51.342Z,10.02
2022-12-22T19:49:21.626Z,15.68
2022-12-22T19:51:50.215Z,10.05
2022-12-22T19:54:20.400Z,11.15
2022-12-22T19:56:50.813Z,14.52
2022-12-22T19:59:29.669Z,12.05
2022-12-22T20:02:01.543Z,11.43
2022-12-22T20:04:29.961Z,11.63
2022-12-22T20:06:58.163Z,11.50
2022-12-22T20:09:27.571Z,12.00
2022-12-22T20:11:55.883Z,11.40
2022-12-22T20:14:23.779Z,11.60
2022-12-22T20:16:52.151Z,10.88
2022-12-22T20:19:20.123Z,12.35
2022-12-22T20:21:48.328Z,11.85
2022-12-22T20:24:22.640Z,13.48
2022-12-22T20:26:54.831Z,10.45
2022-12-22T20:29:25.013Z,11.05
2022-12-22T20:31:53.547Z,10.75
2022-12-22T20:34:21.651Z,10.75
2022-12-22T20:36:50.800Z,11.23
2022-12-22T20:39:20.393Z,13.90
2022-12-22T20:41:53.486Z,12.18
2022-12-22T20:44:24.333Z,10.85
2022-12-22T20:46:52.738Z,14.52
2022-12-22T20:49:20.701Z,11.60
2022-12-22T20:51:49.090Z,12.55
2022-12-22T20:54:17.460Z,12.45
2022-12-22T20:56:46.173Z,13.02
2022-12-22T20:59:17.298Z,12.88
2022-12-22T21:01:47.920Z,14.93
2022-12-22T21:04:16.933Z,11.77
2022-12-22T21:06:48.178Z,12.32
2022-12-22T21:09:17.155Z,14.20
2022-12-22T21:11:45.925Z,13.98
2022-12-22T21:14:14.426Z,14.73
2022-12-22T21:16:43.348Z,10.68
2022-12-22T21:19:19.318Z,14.80
2022-12-22T21:21:47.648Z,12.27
2022-12-22T21:24:15.911Z,13.35
2022-12-22T21:26:47.117Z,13.35
2022-12-22T21:29:19.738Z,13.95
2022-12-22T21:31:48.271Z,11.55
2022-12-22T21:34:17.725Z,13.55
2022-12-22T21:36:49.466Z,14.85
2022-12-22T21:39:24.533Z,10.85
2022-12-22T21:42:01.567Z,11.32
2022-12-22T21:44:30.526Z,14.40
2022-12-22T21:46:59.255Z,12.45
2022-12-22T21:49:30.871Z,13.65
2022-12-22T21:51:59.371Z,9.70
2022-12-22T21:54:28.895Z,16.70
2022-12-22T21:56:57.032Z,13.63
2022-12-22T21:59:25.129Z,11.10
2022-12-22T22:01:53.780Z,10.07
2022-12-22T22:04:22.256Z,12.05
2022-12-22T22:06:52.260Z,10.80
2022-12-22T22:09:20.356Z,13.40
2022-12-22T22:12:06.077Z,9.70
2022-12-22T22:14:34.603Z,9.48
2022-12-22T22:17:02.941Z,11.75
2022-12-22T22:19:30.963Z,12.45
2022-12-22T22:22:00.609Z,11.10
2022-12-22T22:24:28.554Z,9.88
2022-12-22T22:26:56.833Z,8.05
2022-12-22T22:29:24.856Z,10.00
2022-12-22T22:31:53.035Z,11.75
2022-12-22T22:34:20.968Z,11.98
2022-12-22T22:36:49.630Z,9.48
2022-12-22T22:39:18.883Z,10.80
2022-12-22T22:41:47.070Z,11.10
2022-12-22T22:44:15.203Z,14.10
2022-12-22T22:46:43.478Z,11.90
2022-12-22T22:49:11.442Z,11.15
2022-12-22T22:51:39.775Z,8.45
2022-12-22T22:54:07.675Z,9.32
2022-12-22T22:56:38.724Z,11.70
2022-12-22T22:59:06.958Z,8.07
2022-12-22T23:01:35.355Z,10.45
2022-12-22T23:04:03.412Z,9.13
2022-12-22T23:06:31.768Z,9.57
2022-12-22T23:09:00.663Z,10.02
2022-12-22T23:11:28.859Z,9.20
2022-12-22T23:13:58.217Z,9.05
2022-12-22T23:16:30.798Z,9.85
2022-12-22T23:19:01.788Z,9.40
2022-12-22T23:21:30.033Z,10.48
2022-12-22T23:23:58.797Z,9.43
2022-12-22T23:26:27.378Z,11.52
2022-12-22T23:29:01.070Z,8.60
2022-12-22T23:31:33.676Z,10.32
2022-12-22T23:34:02.093Z,8.05
2022-12-22T23:36:30.608Z,9.07
2022-12-22T23:38:58.954Z,7.05
2022-12-22T23:41:27.139Z,7.60
2022-12-22T23:43:55.584Z,8.13
2022-12-22T23:46:24.383Z,6.93
2022-12-22T23:48:54.786Z,7.03
2022-12-22T23:51:25.190Z,6.68
2022-12-22T23:53:53.539Z,5.32
2022-12-22T23:56:21.816Z,4.78
2022-12-22T23:58:54.437Z,7.85
